Time;durP1;ratioP1;P1;durP2;ratioP2;P2;SDS_P1;SDS_P2;PMS_P1;PMS_P2;Temp;Humidity;BMP_temperature;BMP_pressure;BME280_temperature;BME280_humidity;BME280_pressure;Samples;Min_cycle;Max_cycle;Signal;HPM_P1;HPM_P2
2022/08/28 00:01:31;;;;;;;15.80;4.57;;;;;;;;;;5024077;28;20044;-73
2022/08/28 00:03:57;;;;;;;14.18;3.92;;;;;;;;;;5032586;28;20274;-74
2022/08/28 00:06:22;;;;;;;7.53;3.72;;;;;;;;;;5028751;28;20032;-71
2022/08/28 00:08:47;;;;;;;10.03;4.73;;;;;;;;;;5019216;28;20029;-71
2022/08/28 00:11:13;;;;;;;11.25;4.32;;;;;;;;;;5014542;28;20319;-74
2022/08/28 00:13:38;;;;;;;13.50;4.32;;;;;;;;;;5013447;28;20037;-72
2022/08/28 00:16:04;;;;;;;9.80;5.10;;;;;;;;;;5013753;28;20036;-72
2022/08/28 00:18:30;;;;;;;13.52;4.57;;;;;;;;;;5013822;28;20379;-73
2022/08/28 00:20:56;;;;;;;9.40;4.15;;;;;;;;;;5021525;28;20072;-73
2022/08/28 00:23:21;;;;;;;9.70;4.80;;;;;;;;;;5014646;28;20471;-73
2022/08/28 00:25:47;;;;;;;9.73;4.38;;;;;;;;;;5024683;28;20103;-73
2022/08/28 00:28:13;;;;;;;7.95;4.07;;;;;;;;;;5047067;28;20017;-73
2022/08/28 00:30:48;;;;;;;8.73;4.03;;;;;;;;;;5013598;28;20049;-70
2022/08/28 00:33:15;;;;;;;11.10;4.20;;;;;;;;;;5013511;28;20041;-73
2022/08/28 00:35:41;;;;;;;10.73;4.47;;;;;;;;;;5013723;28;20030;-71
2022/08/28 00:38:08;;;;;;;7.22;4.13;;;;;;;;;;5013010;28;20044;-73
2022/08/28 00:40:33;;;;;;;9.70;3.78;;;;;;;;;;5013515;28;20084;-70
2022/08/28 00:43:00;;;;;;;10.80;4.45;;;;;;;;;;5020039;28;20461;-73
2022/08/28 00:45:26;;;;;;;11.38;4.13;;;;;;;;;;5033568;28;20044;-70
2022/08/28 00:47:51;;;;;;;9.52;4.20;;;;;;;;;;5020673;28;20021;-73
2022/08/28 00:50:19;;;;;;;11.65;4.60;;;;;;;;;;5033149;28;20036;-73
2022/08/28 00:52:46;;;;;;;11.38;4.70;;;;;;;;;;5033038;28;20496;-73
2022/08/28 00:55:14;;;;;;;9.20;4.60;;;;;;;;;;5030745;28;20036;-73
2022/08/28 00:57:43;;;;;;;9.20;3.90;;;;;;;;;;5013016;28;20030;-73
2022/08/28 01:00:10;;;;;;;10.88;5.72;;;;;;;;;;5019996;28;20076;-73
2022/08/28 01:02:35;;;;;;;14.15;5.25;;;;;;;;;;5011379;28;20073;-70
2022/08/28 01:05:01;;;;;;;14.80;4.90;;;;;;;;;;5012748;28;20026;-72
2022/08/28 01:07:26;;;;;;;10.25;3.90;;;;;;;;;;5013039;28;20065;-74
2022/08/28 01:09:53;;;;;;;12.48;4.93;;;;;;;;;;5013331;28;20025;-69
2022/08/28 01:12:25;;;;;;;11.25;4.10;;;;;;;;;;5021621;28;20026;-73
2022/08/28 01:14:52;;;;;;;8.15;3.17;;;;;;;;;;5012977;28;20084;-70
2022/08/28 01:17:19;;;;;;;10.38;5.43;;;;;;;;;;5022779;28;20041;-72
2022/08/28 01:19:47;;;;;;;9.82;4.20;;;;;;;;;;5020293;28;20116;-73
2022/08/28 01:22:24;;;;;;;9.05;4.10;;;;;;;;;;5030253;28;20043;-73
2022/08/28 01:24:51;;;;;;;10.23;4.93;;;;;;;;;;5025862;28;20057;-73
2022/08/28 01:27:16;;;;;;;10.38;4.55;;;;;;;;;;5030997;28;20063;-70
2022/08/28 01:29:41;;;;;;;11.65;4.55;;;;;;;;;;5032132;28;20029;-72
2022/08/28 01:32:07;;;;;;;11.55;4.95;;;;;;;;;;5027214;28;20021;-70
2022/08/28 01:34:33;;;;;;;12.77;4.30;;;;;;;;;;5024340;28;20465;-74
2022/08/28 01:36:58;;;;;;;14.10;4.35;;;;;;;;;;5032291;28;20029;-72
2022/08/28 01:39:24;;;;;;;14.82;4.40;;;;;;;;;;5030170;28;20469;-73
2022/08/28 01:41:51;;;;;;;12.93;4.95;;;;;;;;;;5031126;28;20025;-73
2022/08/28 01:44:18;;;;;;;10.68;4.65;;;;;;;;;;5032779;28;20034;-73
2022/08/28 01:46:43;;;;;;;10.95;5.85;;;;;;;;;;5011844;28;20104;-73
2022/08/28 01:49:10;;;;;;;8.70;4.15;;;;;;;;;;5012227;28;20022;-74
2022/08/28 01:51:36;;;;;;;10.32;3.88;;;;;;;;;;5025508;28;20024;-73
2022/08/28 01:54:01;;;;;;;6.75;4.10;;;;;;;;;;5019283;28;20050;-73
2022/08/28 01:56:26;;;;;;;9.95;4.28;;;;;;;;;;5018951;28;20029;-73
2022/08/28 01:58:51;;;;;;;7.65;3.65;;;;;;;;;;5011734;28;20160;-73
2022/08/28 02:01:19;;;;;;;10.30;4.10;;;;;;;;;;5028045;28;20025;-72
2022/08/28 02:03:45;;;;;;;11.50;5.07;;;;;;;;;;5027287;28;20026;-70
2022/08/28 02:06:10;;;;;;;6.82;3.60;;;;;;;;;;5012097;28;20075;-72
2022/08/28 02:08:36;;;;;;;12.50;3.95;;;;;;;;;;5022454;28;20030;-74
2022/08/28 02:11:02;;;;;;;15.00;4.80;;;;;;;;;;5014647;28;20033;-73
2022/08/28 02:13:27;;;;;;;11.45;4.97;;;;;;;;;;5011506;28;20096;-73
2022/08/28 02:15:52;;;;;;;6.72;4.07;;;;;;;;;;5020569;28;20049;-74
2022/08/28 02:18:17;;;;;;;10.75;5.72;;;;;;;;;;5030021;28;20084;-71
2022/08/28 02:20:43;;;;;;;11.02;4.32;;;;;;;;;;5028813;28;20017;-73
2022/08/28 02:23:09;;;;;;;11.60;4.38;;;;;;;;;;5031155;28;20076;-73
2022/08/28 02:25:34;;;;;;;7.22;3.78;;;;;;;;;;5021617;28;20137;-74
2022/08/28 02:27:59;;;;;;;10.32;4.50;;;;;;;;;;5011858;28;20822;-73
2022/08/28 02:30:25;;;;;;;9.35;4.00;;;;;;;;;;5010534;28;20159;-73
2022/08/28 02:32:50;;;;;;;9.68;4.20;;;;;;;;;;5011426;28;20030;-70
2022/08/28 02:35:16;;;;;;;9.75;4.50;;;;;;;;;;5011873;28;20468;-73
2022/08/28 02:37:43;;;;;;;12.23;5.07;;;;;;;;;;5031019;28;20234;-71
2022/08/28 02:40:09;;;;;;;11.98;4.18;;;;;;;;;;5019857;28;20488;-73
2022/08/28 02:42:34;;;;;;;11.05;4.25;;;;;;;;;;5022425;28;20033;-73
2022/08/28 02:45:00;;;;;;;8.07;3.75;;;;;;;;;;5048918;28;20017;-73
2022/08/28 02:47:25;;;;;;;13.73;3.90;;;;;;;;;;5038141;28;20030;-73
2022/08/28 02:49:50;;;;;;;10.73;4.47;;;;;;;;;;5011784;28;20022;-70
2022/08/28 02:52:15;;;;;;;13.43;4.00;;;;;;;;;;5012887;28;20553;-73
2022/08/28 02:54:40;;;;;;;12.40;4.93;;;;;;;;;;5017244;28;20021;-73
2022/08/28 02:57:07;;;;;;;12.20;3.90;;;;;;;;;;5013581;28;20026;-73
2022/08/28 02:59:33;;;;;;;9.68;4.47;;;;;;;;;;5021349;28;20025;-73
2022/08/28 03:01:59;;;;;;;16.20;5.70;;;;;;;;;;5010672;28;20338;-72
2022/08/28 03:04:25;;;;;;;14.95;4.85;;;;;;;;;;5011171;28;20038;-73
2022/08/28 03:06:50;;;;;;;10.48;4.90;;;;;;;;;;5011620;28;20088;-74
2022/08/28 03:09:15;;;;;;;7.35;3.63;;;;;;;;;;5013214;28;20528;-73
2022/08/28 03:11:40;;;;;;;10.20;4.15;;;;;;;;;;5023677;28;20433;-73
2022/08/28 03:14:06;;;;;;;11.68;3.60;;;;;;;;;;5011250;28;20037;-73
2022/08/28 03:16:32;;;;;;;8.23;3.90;;;;;;;;;;5016117;28;20042;-73
2022/08/28 03:18:58;;;;;;;7.55;4.38;;;;;;;;;;5011025;28;20033;-70
2022/08/28 03:21:23;;;;;;;11.38;4.20;;;;;;;;;;5026060;28;20026;-73
2022/08/28 03:23:48;;;;;;;9.80;4.13;;;;;;;;;;5019843;28;20041;-72
2022/08/28 03:26:15;;;;;;;12.77;3.93;;;;;;;;;;5015723;28;20129;-73
2022/08/28 03:28:45;;;;;;;11.82;4.15;;;;;;;;;;5014393;28;20267;-74
2022/08/28 03:31:12;;;;;;;9.50;3.80;;;;;;;;;;5015076;28;20034;-71
2022/08/28 03:33:39;;;;;;;9.70;3.85;;;;;;;;;;5029339;28;20017;-73
2022/08/28 03:36:04;;;;;;;10.48;4.22;;;;;;;;;;5032838;28;20460;-73
2022/08/28 03:38:29;;;;;;;12.15;4.28;;;;;;;;;;5014138;28;20108;-73
2022/08/28 03:40:54;;;;;;;11.35;4.80;;;;;;;;;;5030391;28;20022;-73
2022/08/28 03:43:21;;;;;;;16.05;4.95;;;;;;;;;;5038247;28;20096;-73
2022/08/28 03:45:56;;;;;;;11.48;5.10;;;;;;;;;;5021004;28;20037;-73
2022/08/28 03:48:23;;;;;;;14.90;4.63;;;;;;;;;;5014715;28;20500;-74
2022/08/28 03:50:48;;;;;;;10.05;4.03;;;;;;;;;;5028881;28;20163;-70
2022/08/28 03:53:13;;;;;;;8.57;4.68;;;;;;;;;;5033089;28;20120;-73
2022/08/28 03:55:40;;;;;;;11.57;4.05;;;;;;;;;;5021866;28;20395;-72
2022/08/28 03:58:06;;;;;;;10.10;3.80;;;;;;;;;;5014156;28;20022;-73
2022/08/28 04:00:31;;;;;;;13.88;4.50;;;;;;;;;;5017729;28;20030;-73
2022/08/28 04:02:56;;;;;;;9.80;4.65;;;;;;;;;;5013210;28;20034;-72
2022/08/28 04:05:22;;;;;;;8.20;4.43;;;;;;;;;;5012614;28;20121;-72
2022/08/28 04:07:47;;;;;;;11.38;4.45;;;;;;;;;;5021596;28;20029;-70
2022/08/28 04:10:12;;;;;;;10.25;3.63;;;;;;;;;;5013474;28;20103;-73
2022/08/28 04:12:37;;;;;;;9.00;4.30;;;;;;;;;;5015797;28;20034;-72
2022/08/28 04:15:03;;;;;;;14.80;5.05;;;;;;;;;;5032607;28;20026;-69
2022/08/28 04:17:28;;;;;;;8.80;3.80;;;;;;;;;;5033645;28;20100;-72
2022/08/28 04:19:54;;;;;;;12.25;3.92;;;;;;;;;;5033584;28;20083;-73
2022/08/28 04:22:19;;;;;;;10.48;4.32;;;;;;;;;;5018534;28;20036;-73
2022/08/28 04:24:44;;;;;;;9.95;3.60;;;;;;;;;;5039381;28;20036;-73
2022/08/28 04:27:09;;;;;;;10.18;4.55;;;;;;;;;;5033030;28;20034;-73
2022/08/28 04:29:34;;;;;;;6.63;3.83;;;;;;;;;;5027987;28;20026;-73
2022/08/28 04:32:00;;;;;;;8.95;4.53;;;;;;;;;;5033682;28;20691;-72
2022/08/28 04:34:26;;;;;;;12.55;4.82;;;;;;;;;;5015978;28;20060;-73
2022/08/28 04:36:51;;;;;;;13.52;4.68;;;;;;;;;;5026660;28;20377;-70
2022/08/28 04:39:16;;;;;;;8.63;3.65;;;;;;;;;;5033232;28;20535;-73
2022/08/28 04:41:42;;;;;;;8.43;4.07;;;;;;;;;;5031662;28;20493;-72
2022/08/28 04:44:07;;;;;;;12.87;4.63;;;;;;;;;;5044827;28;20100;-72
2022/08/28 04:46:32;;;;;;;9.98;4.20;;;;;;;;;;5025667;28;20302;-70
2022/08/28 04:48:58;;;;;;;10.38;3.70;;;;;;;;;;5013873;28;20022;-71
2022/08/28 04:51:23;;;;;;;12.75;4.63;;;;;;;;;;5013757;28;20032;-73
2022/08/28 04:53:48;;;;;;;6.35;3.78;;;;;;;;;;5012958;28;20029;-70
2022/08/28 04:56:14;;;;;;;9.68;4.70;;;;;;;;;;5013170;28;20025;-70
2022/08/28 04:58:40;;;;;;;8.68;4.65;;;;;;;;;;5025306;28;20022;-72
2022/08/28 05:01:07;;;;;;;9.50;3.90;;;;;;;;;;5022090;28;20428;-70
2022/08/28 05:03:32;;;;;;;11.57;4.63;;;;;;;;;;5011001;28;20094;-72
2022/08/28 05:05:58;;;;;;;14.23;4.18;;;;;;;;;;5019798;28;20065;-73
2022/08/28 05:08:25;;;;;;;11.23;4.13;;;;;;;;;;5013602;28;20387;-73
2022/08/28 05:10:51;;;;;;;8.73;3.45;;;;;;;;;;5032221;28;20266;-73
2022/08/28 05:13:18;;;;;;;10.25;3.70;;;;;;;;;;5024016;28;20148;-74
2022/08/28 05:15:44;;;;;;;8.52;3.75;;;;;;;;;;5025727;28;20456;-73
2022/08/28 05:18:10;;;;;;;10.30;3.53;;;;;;;;;;5032391;28;20028;-72
2022/08/28 05:20:40;;;;;;;15.60;4.20;;;;;;;;;;5031422;28;20365;-72
2022/08/28 05:23:06;;;;;;;6.55;3.95;;;;;;;;;;5014420;28;20038;-72
2022/08/28 05:25:36;;;;;;;8.45;3.42;;;;;;;;;;5030689;28;20048;-70
2022/08/28 05:28:02;;;;;;;8.63;3.78;;;;;;;;;;5019838;28;20104;-74
2022/08/28 05:30:27;;;;;;;12.05;3.88;;;;;;;;;;5012288;28;20425;-70
2022/08/28 05:32:52;;;;;;;12.48;3.45;;;;;;;;;;5025639;28;20029;-73
2022/08/28 05:35:18;;;;;;;9.30;3.22;;;;;;;;;;5012605;28;20447;-74
2022/08/28 05:37:43;;;;;;;12.15;4.60;;;;;;;;;;5011923;28;20074;-70
2022/08/28 05:40:09;;;;;;;7.93;4.20;;;;;;;;;;5012540;28;20038;-73
2022/08/28 05:42:34;;;;;;;9.98;4.22;;;;;;;;;;5012504;28;20045;-70
2022/08/28 05:45:00;;;;;;;10.57;4.25;;;;;;;;;;5032792;28;20510;-73
2022/08/28 05:47:25;;;;;;;9.05;3.58;;;;;;;;;;5010208;28;20485;-72
2022/08/28 05:49:50;;;;;;;6.27;3.57;;;;;;;;;;5038480;28;20067;-73
2022/08/28 05:52:15;;;;;;;9.67;4.60;;;;;;;;;;5017503;28;20282;-73
2022/08/28 05:54:41;;;;;;;10.55;3.38;;;;;;;;;;5011813;28;20322;-73
2022/08/28 05:57:07;;;;;;;5.72;3.17;;;;;;;;;;5012459;28;20418;-73
2022/08/28 05:59:32;;;;;;;8.85;3.05;;;;;;;;;;5030953;28;20109;-73
2022/08/28 06:01:57;;;;;;;6.88;2.85;;;;;;;;;;5011027;28;20398;-73
2022/08/28 06:04:25;;;;;;;9.98;2.88;;;;;;;;;;5021934;28;20048;-73
2022/08/28 06:06:50;;;;;;;10.48;3.63;;;;;;;;;;5024405;28;20183;-73
2022/08/28 06:09:18;;;;;;;10.75;3.50;;;;;;;;;;5029058;28;20112;-72
2022/08/28 06:11:43;;;;;;;12.18;3.70;;;;;;;;;;5031230;28;20051;-73
2022/08/28 06:14:09;;;;;;;9.57;4.13;;;;;;;;;;5031589;28;20013;-73
2022/08/28 06:16:42;;;;;;;7.28;3.45;;;;;;;;;;5015640;28;20486;-73
2022/08/28 06:19:08;;;;;;;7.28;3.10;;;;;;;;;;5011522;28;20105;-74
2022/08/28 06:21:34;;;;;;;10.27;3.58;;;;;;;;;;5024149;28;20030;-73
2022/08/28 06:23:59;;;;;;;17.65;4.18;;;;;;;;;;5028748;28;20027;-72
2022/08/28 06:26:24;;;;;;;7.45;3.25;;;;;;;;;;5022777;28;20057;-74
2022/08/28 06:28:51;;;;;;;18.02;4.03;;;;;;;;;;5022810;28;20120;-73
2022/08/28 06:31:16;;;;;;;7.38;3.03;;;;;;;;;;5011670;28;20018;-70
2022/08/28 06:33:41;;;;;;;6.47;3.42;;;;;;;;;;5011526;28;20014;-70
2022/08/28 06:36:07;;;;;;;8.00;2.53;;;;;;;;;;5011335;28;20523;-73
2022/08/28 06:38:32;;;;;;;6.57;3.00;;;;;;;;;;5009982;28;20117;-70
2022/08/28 06:40:58;;;;;;;6.85;2.85;;;;;;;;;;5026368;28;20025;-73
2022/08/28 06:43:25;;;;;;;8.27;3.28;;;;;;;;;;5036435;28;20013;-74
2022/08/28 06:45:53;;;;;;;10.80;3.10;;;;;;;;;;5011460;28;20030;-70
2022/08/28 06:48:19;;;;;;;8.75;3.67;;;;;;;;;;5009863;28;20029;-74
2022/08/28 06:50:46;;;;;;;9.00;3.47;;;;;;;;;;5017031;28;20021;-72
2022/08/28 06:53:13;;;;;;;10.40;3.40;;;;;;;;;;5025020;28;20030;-73
2022/08/28 06:55:38;;;;;;;6.75;2.58;;;;;;;;;;5011314;28;20025;-73
2022/08/28 06:58:04;;;;;;;6.47;2.75;;;;;;;;;;5026874;28;20025;-72
2022/08/28 07:00:29;;;;;;;10.40;3.03;;;;;;;;;;5034505;28;20079;-73
2022/08/28 07:02:55;;;;;;;9.38;3.58;;;;;;;;;;5015000;28;20029;-74
2022/08/28 07:05:20;;;;;;;10.32;2.90;;;;;;;;;;5015012;28;20034;-73
2022/08/28 07:07:45;;;;;;;7.25;2.40;;;;;;;;;;5014808;28;20072;-69
2022/08/28 07:10:11;;;;;;;9.48;2.53;;;;;;;;;;5018312;28;20112;-73
2022/08/28 07:12:36;;;;;;;9.68;3.13;;;;;;;;;;5013680;28;20049;-74
2022/08/28 07:15:03;;;;;;;10.30;2.63;;;;;;;;;;5027332;28;20359;-70
2022/08/28 07:17:28;;;;;;;10.30;2.70;;;;;;;;;;5022206;28;20037;-73
2022/08/28 07:19:53;;;;;;;7.50;2.88;;;;;;;;;;5026187;28;20021;-73
2022/08/28 07:22:18;;;;;;;11.20;3.27;;;;;;;;;;5033142;28;20111;-70
2022/08/28 07:24:44;;;;;;;15.13;3.53;;;;;;;;;;5034079;28;20271;-72
2022/08/28 07:27:09;;;;;;;9.18;2.85;;;;;;;;;;5015223;28;20046;-74
2022/08/28 07:29:34;;;;;;;11.48;3.03;;;;;;;;;;5014399;28;20022;-73
2022/08/28 07:31:59;;;;;;;8.68;2.35;;;;;;;;;;5030080;28;20028;-73
2022/08/28 07:34:25;;;;;;;9.30;3.00;;;;;;;;;;5034770;28;20397;-72
2022/08/28 07:36:53;;;;;;;9.82;2.33;;;;;;;;;;5031205;28;20053;-73
2022/08/28 07:39:18;;;;;;;5.95;2.53;;;;;;;;;;5014199;28;20694;-73
2022/08/28 07:41:45;;;;;;;12.75;3.92;;;;;;;;;;5014835;28;20025;-73
2022/08/28 07:46:57;;;;;;;7.60;2.17;;;;;;;;;;5014554;28;20024;-74
2022/08/28 07:49:24;;;;;;;8.25;2.70;;;;;;;;;;5023169;28;20025;-73
2022/08/28 07:51:49;;;;;;;10.35;2.60;;;;;;;;;;5015767;28;20026;-71
2022/08/28 07:54:14;;;;;;;11.27;3.00;;;;;;;;;;5032050;28;20033;-71
2022/08/28 07:56:40;;;;;;;11.43;2.45;;;;;;;;;;5029686;28;20383;-73
2022/08/28 07:59:06;;;;;;;7.80;2.55;;;;;;;;;;5032474;28;20032;-72
2022/08/28 08:01:34;;;;;;;14.07;2.60;;;;;;;;;;5029797;28;20385;-73
2022/08/28 08:04:00;;;;;;;9.43;2.25;;;;;;;;;;5034345;28;20029;-72
2022/08/28 08:06:30;;;;;;;6.27;2.40;;;;;;;;;;5032900;28;20013;-71
2022/08/28 08:08:55;;;;;;;6.07;2.38;;;;;;;;;;5014002;28;20283;-73
2022/08/28 08:11:21;;;;;;;11.00;3.03;;;;;;;;;;5032497;28;20424;-73
2022/08/28 08:13:46;;;;;;;11.88;3.25;;;;;;;;;;5033228;28;20013;-73
2022/08/28 08:16:13;;;;;;;8.30;2.67;;;;;;;;;;5017352;28;20390;-73
2022/08/28 08:18:40;;;;;;;9.13;2.70;;;;;;;;;;5024763;28;20105;-74
2022/08/28 08:21:07;;;;;;;6.85;2.33;;;;;;;;;;5031072;28;20402;-73
2022/08/28 08:23:37;;;;;;;6.18;2.30;;;;;;;;;;5022576;28;20113;-74
2022/08/28 08:26:06;;;;;;;13.02;3.13;;;;;;;;;;5016811;28;20046;-73
2022/08/28 08:28:33;;;;;;;5.78;2.65;;;;;;;;;;5013627;28;20034;-70
2022/08/28 08:31:04;;;;;;;6.95;2.15;;;;;;;;;;5013566;28;20068;-73
2022/08/28 08:33:30;;;;;;;8.32;3.17;;;;;;;;;;5013738;28;20026;-73
2022/08/28 08:35:56;;;;;;;7.70;2.17;;;;;;;;;;5013437;28;20141;-73
2022/08/28 08:38:21;;;;;;;6.90;2.40;;;;;;;;;;5014890;28;20036;-72
2022/08/28 08:40:47;;;;;;;7.85;2.15;;;;;;;;;;5033623;28;20033;-73
2022/08/28 08:43:13;;;;;;;5.38;2.05;;;;;;;;;;5033738;28;20021;-70
2022/08/28 08:45:38;;;;;;;8.27;2.50;;;;;;;;;;5014562;28;20040;-73
2022/08/28 08:48:04;;;;;;;10.07;2.72;;;;;;;;;;5026317;28;20429;-73
2022/08/28 08:50:31;;;;;;;10.88;2.10;;;;;;;;;;5032951;28;20017;-73
2022/08/28 08:53:15;;;;;;;6.53;1.83;;;;;;;;;;5023489;28;20034;-72
2022/08/28 08:55:49;;;;;;;10.30;2.20;;;;;;;;;;5029958;28;20024;-73
2022/08/28 08:58:21;;;;;;;6.43;2.20;;;;;;;;;;5018301;28;20056;-73
2022/08/28 09:00:53;;;;;;;9.27;3.00;;;;;;;;;;5013279;28;20018;-74
2022/08/28 09:03:21;;;;;;;8.18;2.10;;;;;;;;;;5018442;28;20026;-71
2022/08/28 09:05:51;;;;;;;4.68;2.17;;;;;;;;;;5032903;28;20026;-74
2022/08/28 09:08:28;;;;;;;8.82;3.30;;;;;;;;;;5032485;28;20091;-74
2022/08/28 09:10:59;;;;;;;5.47;2.15;;;;;;;;;;5020366;28;20501;-70
2022/08/28 09:13:27;;;;;;;10.77;2.45;;;;;;;;;;5023590;28;20370;-74
2022/08/28 09:15:52;;;;;;;7.10;2.40;;;;;;;;;;5032680;28;20049;-73
2022/08/28 09:18:24;;;;;;;7.45;2.47;;;;;;;;;;5020262;28;20457;-74
2022/08/28 09:20:51;;;;;;;7.22;2.35;;;;;;;;;;5011798;28;20121;-70
2022/08/28 09:23:16;;;;;;;7.00;1.98;;;;;;;;;;5012709;28;20541;-73
2022/08/28 09:25:49;;;;;;;9.32;3.22;;;;;;;;;;5023013;28;20072;-72
2022/08/28 09:28:20;;;;;;;9.88;2.70;;;;;;;;;;5013597;28;20038;-71
2022/08/28 09:30:51;;;;;;;8.88;3.17;;;;;;;;;;5036802;28;20028;-74
2022/08/28 09:33:26;;;;;;;7.10;2.47;;;;;;;;;;5017070;28;20398;-72
2022/08/28 09:35:51;;;;;;;8.32;2.53;;;;;;;;;;5011352;28;20263;-73
2022/08/28 09:38:23;;;;;;;10.07;3.07;;;;;;;;;;5012237;28;20033;-73
2022/08/28 09:43:43;;;;;;;8.18;2.15;;;;;;;;;;5021932;28;20072;-70
2022/08/28 09:46:19;;;;;;;10.48;2.75;;;;;;;;;;5012830;28;20033;-73
2022/08/28 09:48:46;;;;;;;5.35;2.00;;;;;;;;;;5025911;28;20025;-73
2022/08/28 09:51:13;;;;;;;14.35;2.50;;;;;;;;;;5020593;28;20100;-73
2022/08/28 09:53:50;;;;;;;6.82;2.35;;;;;;;;;;5012013;28;20026;-75
2022/08/28 09:56:26;;;;;;;8.13;2.08;;;;;;;;;;5013018;28;20022;-75
2022/08/28 09:59:11;;;;;;;7.57;1.92;;;;;;;;;;5031463;28;20057;-75
2022/08/28 10:01:50;;;;;;;12.90;2.67;;;;;;;;;;5023905;28;20495;-75
2022/08/28 10:04:21;;;;;;;4.60;2.38;;;;;;;;;;5034248;28;20059;-74
2022/08/28 10:06:55;;;;;;;7.40;2.53;;;;;;;;;;5028830;28;20026;-71
2022/08/28 10:09:38;;;;;;;8.45;1.98;;;;;;;;;;5011713;28;20013;-75
2022/08/28 10:12:03;;;;;;;5.75;2.65;;;;;;;;;;5012006;28;20093;-75
2022/08/28 10:14:34;;;;;;;7.15;2.25;;;;;;;;;;5025261;28;20108;-75
2022/08/28 10:17:18;;;;;;;6.38;1.88;;;;;;;;;;5031605;28;20233;-75
2022/08/28 10:20:02;;;;;;;10.85;3.10;;;;;;;;;;5011803;28;20049;-72
2022/08/28 10:22:33;;;;;;;9.15;3.05;;;;;;;;;;5029584;28;20424;-74
2022/08/28 10:25:21;;;;;;;4.63;2.85;;;;;;;;;;5025834;28;20033;-75
2022/08/28 10:28:01;;;;;;;8.05;2.15;;;;;;;;;;5008261;28;20030;-71
2022/08/28 10:30:28;;;;;;;7.45;1.83;;;;;;;;;;5011430;28;20382;-76
2022/08/28 10:33:12;;;;;;;9.02;3.50;;;;;;;;;;5011287;28;20045;-74
2022/08/28 10:35:56;;;;;;;3.83;2.35;;;;;;;;;;5011419;28;20492;-75
2022/08/28 10:38:38;;;;;;;8.73;2.30;;;;;;;;;;5021300;28;20060;-71
2022/08/28 10:41:09;;;;;;;6.72;2.45;;;;;;;;;;5024309;28;20864;-71
2022/08/28 10:43:45;;;;;;;5.47;2.47;;;;;;;;;;5019542;28;20051;-75
2022/08/28 10:46:19;;;;;;;5.15;1.73;;;;;;;;;;5011325;28;20548;-73
2022/08/28 10:48:47;;;;;;;8.82;2.38;;;;;;;;;;5029526;28;20026;-73
2022/08/28 10:51:30;;;;;;;6.00;1.95;;;;;;;;;;5017776;28;20036;-71
2022/08/28 10:53:55;;;;;;;;;;;;;;;;;;5011888;28;20116;-71
2022/08/28 10:56:28;;;;;;;11.80;2.33;;;;;;;;;;5027737;28;20253;-76
2022/08/28 10:58:55;;;;;;;4.15;1.80;;;;;;;;;;5010975;28;20263;-73
2022/08/28 11:01:37;;;;;;;5.63;2.13;;;;;;;;;;5013400;28;20032;-75
2022/08/28 11:04:06;;;;;;;5.85;1.83;;;;;;;;;;5011307;28;20034;-72
2022/08/28 11:06:43;;;;;;;8.02;1.60;;;;;;;;;;5011449;28;20093;-75
2022/08/28 11:09:26;;;;;;;6.82;2.60;;;;;;;;;;5012161;28;20033;-71
2022/08/28 11:11:51;;;;;;;7.65;2.00;;;;;;;;;;5031540;28;20029;-75
2022/08/28 11:14:29;;;;;;;8.90;2.53;;;;;;;;;;5031356;28;20021;-72
2022/08/28 11:16:57;;;;;;;5.97;1.90;;;;;;;;;;5025573;28;20038;-75
2022/08/28 11:19:38;;;;;;;5.20;2.10;;;;;;;;;;5011237;28;20029;-71
2022/08/28 11:22:09;;;;;;;3.92;1.77;;;;;;;;;;5010736;28;20041;-74
2022/08/28 11:24:38;;;;;;;6.88;2.30;;;;;;;;;;5021228;28;20022;-72
2022/08/28 11:27:22;;;;;;;10.63;3.42;;;;;;;;;;5011560;28;20061;-75
2022/08/28 11:29:56;;;;;;;7.05;2.30;;;;;;;;;;5019218;28;20025;-73
2022/08/28 11:32:30;;;;;;;6.70;2.45;;;;;;;;;;5010921;28;20367;-74
2022/08/28 11:35:01;;;;;;;6.03;2.28;;;;;;;;;;5009885;28;20037;-71
2022/08/28 11:37:43;;;;;;;8.23;1.88;;;;;;;;;;5011402;28;20049;-76
2022/08/28 11:40:15;;;;;;;9.38;2.88;;;;;;;;;;5011386;28;20040;-71
2022/08/28 11:42:40;;;;;;;7.90;2.25;;;;;;;;;;5011151;28;20466;-75
2022/08/28 11:45:06;;;;;;;11.45;2.28;;;;;;;;;;5030371;28;20124;-75
2022/08/28 11:47:35;;;;;;;8.13;2.00;;;;;;;;;;5025266;28;20026;-73
2022/08/28 11:50:23;;;;;;;6.45;2.03;;;;;;;;;;5014897;28;20398;-75
2022/08/28 11:53:01;;;;;;;8.02;2.20;;;;;;;;;;5010390;28;20049;-74
2022/08/28 11:55:43;;;;;;;5.40;2.08;;;;;;;;;;5014471;28;20026;-74
2022/08/28 11:58:08;;;;;;;;;;;;;;;;;;5029701;28;20504;-75
2022/08/28 12:00:37;;;;;;;7.47;2.92;;;;;;;;;;5014389;28;19968;-71
2022/08/28 12:03:02;;;;;;;4.65;2.28;;;;;;;;;;5036017;28;20086;-70
2022/08/28 12:05:48;;;;;;;8.70;2.27;;;;;;;;;;5026441;28;20113;-75
2022/08/28 12:08:33;;;;;;;10.20;2.47;;;;;;;;;;5033348;28;20492;-73
2022/08/28 12:10:58;;;;;;;4.25;2.70;;;;;;;;;;5024962;28;20029;-72
2022/08/28 12:13:50;;;;;;;7.32;2.20;;;;;;;;;;5026425;28;20386;-74
2022/08/28 12:16:16;;;;;;;5.20;2.60;;;;;;;;;;5011806;28;20046;-71
2022/08/28 12:18:41;;;;;;;8.25;2.30;;;;;;;;;;5027626;28;20111;-71
2022/08/28 12:21:15;;;;;;;4.93;1.92;;;;;;;;;;5030450;28;20026;-73
2022/08/28 12:23:54;;;;;;;8.38;2.25;;;;;;;;;;5033379;28;20052;-76
2022/08/28 12:26:31;;;;;;;4.95;1.92;;;;;;;;;;5023351;28;20042;-74
2022/08/28 12:29:00;;;;;;;8.35;2.00;;;;;;;;;;5015163;28;20040;-74
2022/08/28 12:34:31;;;;;;;7.93;2.63;;;;;;;;;;5014144;28;20551;-71
2022/08/28 12:36:57;;;;;;;8.45;2.35;;;;;;;;;;5019971;28;20030;-74
2022/08/28 12:39:23;;;;;;;3.60;2.08;;;;;;;;;;5017335;28;20025;-71
2022/08/28 12:41:48;;;;;;;3.58;1.80;;;;;;;;;;5029907;28;20037;-76
2022/08/28 12:44:14;;;;;;;5.15;2.08;;;;;;;;;;5036638;28;20036;-75
2022/08/28 12:46:41;;;;;;;4.97;2.40;;;;;;;;;;5031214;28;20524;-75
2022/08/28 12:49:25;;;;;;;11.15;2.05;;;;;;;;;;5032980;28;20100;-74
2022/08/28 12:52:04;;;;;;;6.60;1.90;;;;;;;;;;5033133;28;20381;-75
2022/08/28 12:54:30;;;;;;;5.45;2.05;;;;;;;;;;5031391;28;20053;-75
2022/08/28 12:56:55;;;;;;;8.52;2.42;;;;;;;;;;5012754;28;20485;-73
2022/08/28 12:59:24;;;;;;;5.57;1.90;;;;;;;;;;5012697;28;20034;-76
2022/08/28 13:01:50;;;;;;;5.95;2.85;;;;;;;;;;5027035;28;20039;-72
2022/08/28 13:04:26;;;;;;;9.23;2.47;;;;;;;;;;5032800;28;20104;-71
2022/08/28 13:06:56;;;;;;;4.65;1.80;;;;;;;;;;5026705;28;20041;-74
2022/08/28 13:09:23;;;;;;;6.20;1.90;;;;;;;;;;5016011;28;20029;-76
2022/08/28 13:11:50;;;;;;;5.82;1.98;;;;;;;;;;5028244;28;20021;-75
2022/08/28 13:14:34;;;;;;;6.65;2.10;;;;;;;;;;5032382;28;20021;-71
2022/08/28 13:17:00;;;;;;;4.72;1.63;;;;;;;;;;5030700;28;20025;-73
2022/08/28 13:19:27;;;;;;;9.23;1.90;;;;;;;;;;5032768;28;20079;-76
2022/08/28 13:22:00;;;;;;;6.20;2.53;;;;;;;;;;5032315;28;20501;-71
2022/08/28 13:24:35;;;;;;;4.22;2.13;;;;;;;;;;5025505;28;20024;-75
2022/08/28 13:27:08;;;;;;;4.25;2.15;;;;;;;;;;5012626;28;20418;-75
2022/08/28 13:29:34;;;;;;;4.47;2.08;;;;;;;;;;5032455;28;20033;-74
2022/08/28 13:31:59;;;;;;;5.75;2.08;;;;;;;;;;5032633;28;20022;-73
2022/08/28 13:34:32;;;;;;;4.00;2.03;;;;;;;;;;5026295;28;20038;-75
2022/08/28 13:36:58;;;;;;;6.35;1.70;;;;;;;;;;5025990;28;20346;-75
2022/08/28 13:39:24;;;;;;;9.77;3.80;;;;;;;;;;5017945;28;20028;-73
2022/08/28 13:41:52;;;;;;;5.38;2.70;;;;;;;;;;5012473;28;20558;-75
2022/08/28 13:44:27;;;;;;;6.80;2.50;;;;;;;;;;5035387;28;20124;-73
2022/08/28 13:46:52;;;;;;;4.22;2.28;;;;;;;;;;5026944;28;20034;-70
2022/08/28 13:49:17;;;;;;;8.30;2.60;;;;;;;;;;5030609;28;20026;-71
2022/08/28 13:51:42;;;;;;;8.07;2.60;;;;;;;;;;5032199;28;20013;-74
2022/08/28 13:54:08;;;;;;;8.07;2.55;;;;;;;;;;5012528;28;20746;-71
2022/08/28 13:56:33;;;;;;;5.90;2.25;;;;;;;;;;5012092;28;20072;-76
2022/08/28 13:58:58;;;;;;;5.13;1.75;;;;;;;;;;5021573;28;20033;-73
2022/08/28 14:03:34;;;;;;;7.63;2.00;;;;;;;;;;5023364;28;20026;-75
2022/08/28 14:04:09;;;;;;;6.30;1.92;;;;;;;;;;5031825;28;20504;-71
2022/08/28 14:06:34;;;;;;;6.25;1.95;;;;;;;;;;5025744;28;20030;-71
2022/08/28 14:08:59;;;;;;;8.95;2.65;;;;;;;;;;5009280;28;20068;-74
2022/08/28 14:11:25;;;;;;;6.27;1.73;;;;;;;;;;5011615;28;20036;-75
2022/08/28 14:13:50;;;;;;;4.40;1.80;;;;;;;;;;5031242;28;20247;-75
2022/08/28 14:16:15;;;;;;;5.57;2.33;;;;;;;;;;5026735;28;20485;-72
2022/08/28 14:18:41;;;;;;;6.03;1.90;;;;;;;;;;5028485;28;20029;-75
2022/08/28 14:21:06;;;;;;;5.67;1.60;;;;;;;;;;5021504;28;20398;-75
2022/08/28 14:23:32;;;;;;;6.40;1.70;;;;;;;;;;5013413;28;20251;-75
2022/08/28 14:25:57;;;;;;;4.82;1.85;;;;;;;;;;5018756;28;20112;-75
2022/08/28 14:28:22;;;;;;;3.65;1.77;;;;;;;;;;5011278;28;20160;-75
2022/08/28 14:30:49;;;;;;;4.63;1.80;;;;;;;;;;5012052;28;20132;-75
2022/08/28 14:33:17;;;;;;;3.97;1.40;;;;;;;;;;5016022;28;20513;-72
2022/08/28 14:35:42;;;;;;;10.00;1.65;;;;;;;;;;5016421;28;20104;-75
2022/08/28 14:38:08;;;;;;;7.77;1.60;;;;;;;;;;5031100;28;20442;-71
2022/08/28 14:40:34;;;;;;;3.55;1.60;;;;;;;;;;5015646;28;20281;-74
2022/08/28 14:43:00;;;;;;;3.55;1.45;;;;;;;;;;5015981;28;20034;-74
2022/08/28 14:45:25;;;;;;;3.50;1.30;;;;;;;;;;5035157;28;20034;-74
2022/08/28 14:47:50;;;;;;;3.47;1.50;;;;;;;;;;5022613;28;20068;-75
2022/08/28 14:50:15;;;;;;;5.07;1.45;;;;;;;;;;5014218;28;20281;-76
2022/08/28 14:52:40;;;;;;;3.15;2.00;;;;;;;;;;5034781;28;20389;-74